Wahoo, NE

11:44 PM CST on December 04, 2016 (GMT -0600)
The Ridge Subdivision | | Change Station

Elev 1194 ft 41.23 °N, 96.64 °W | Updated 1 minute ago

Clear
Clear
28.8 °F
Feels Like 29 °F
N
3.0
Wind Variable Wind from South

Today
High -- | Low -- °F
--% Chance of Precip.
Yesterday
High -- | Low -- °F
Precip. -- in
Pressure 29.86 in
Visibility 10.0 miles
Clouds Clear
Windchill 29 °F
Dew Point 28 °F
Humidity 98%
Rainfall 0.38 in
Snow Depth Not available.
7:36 AM 4:57 PM
Waxing Crescent, 28% visible
METAR KAHQ 050535Z AUTO 16005KT 10SM CLR M04/M04 A2986 RMK AO2 T10371045
Pressure 29.86 in
Visibility 10.0 miles
Clouds Clear
Windchill 29 °F
Dew Point 28 °F
Humidity 98%
Rainfall 0.38 in
Snow Depth Not available.
7:36 AM 4:57 PM
Waxing Crescent, 28% visible
METAR KAHQ 050535Z AUTO 16005KT 10SM CLR M04/M04 A2986 RMK AO2 T10371045

10-Day Weather Forecast

Almanac

Astronomy

Dec. 04, 2016 Rise Set
Actual Time
Civil Twilight
Nautical Twilight
Astronomical Twilight
Moon
Length of Visible Light
Length of Day
Tomorrow will be .
, % of the Moon is Illuminated

Today's Extremes

State Highs State Lows

Community

WunderPhotos

Upload Photos

1,955,770 photos uploaded!

WunderBlog® & News

Nearby

Air Quality

  Air Quality AQ Index Pollutant
Not available.

Snow Depth

Station Depth Elevation

Earthquake Activity

City Distance Mag. Time & Date
Minimum magnitude displayed is 2.5.

Coastal Water Temperatures

Place Temperature

Stations

Nearby Weather Stations

Station Location Temp. Windchill Dew Point Humidity Wind Precip. Elev Updated Type
                   

Watches & Warnings

There are currently no watches in effect.